sensor_id;sensor_type;location;lat;lon;timestamp;P1;durP1;ratioP1;P2;durP2;ratioP2
22256;SDS011;11297;42.686;23.374;2022-09-09T00:03:47;7.73;;;6.33;;
22256;SDS011;11297;42.686;23.374;2022-09-09T00:11:48;11.00;;;8.30;;
22256;SDS011;11297;42.686;23.374;2022-09-09T00:14:26;9.67;;;8.70;;
22256;SDS011;11297;42.686;23.374;2022-09-09T00:17:00;9.57;;;8.10;;
22256;SDS011;11297;42.686;23.374;2022-09-09T00:19:41;9.33;;;7.93;;
22256;SDS011;11297;42.686;23.374;2022-09-09T00:22:19;10.90;;;9.80;;
22256;SDS011;11297;42.686;23.374;2022-09-09T00:24:54;10.40;;;9.40;;
22256;SDS011;11297;42.686;23.374;2022-09-09T00:30:16;10.50;;;9.47;;
22256;SDS011;11297;42.686;23.374;2022-09-09T00:33:00;9.77;;;8.07;;
22256;SDS011;11297;42.686;23.374;2022-09-09T00:35:30;9.33;;;7.87;;
22256;SDS011;11297;42.686;23.374;2022-09-09T00:38:10;8.00;;;7.23;;
22256;SDS011;11297;42.686;23.374;2022-09-09T00:40:53;9.60;;;7.53;;
22256;SDS011;11297;42.686;23.374;2022-09-09T00:43:30;9.10;;;8.27;;
22256;SDS011;11297;42.686;23.374;2022-09-09T00:54:38;10.03;;;7.03;;
22256;SDS011;11297;42.686;23.374;2022-09-09T01:02:28;7.83;;;7.10;;
22256;SDS011;11297;42.686;23.374;2022-09-09T01:05:00;8.23;;;7.43;;
22256;SDS011;11297;42.686;23.374;2022-09-09T01:07:32;9.93;;;7.50;;
22256;SDS011;11297;42.686;23.374;2022-09-09T01:09:58;7.23;;;6.63;;
22256;SDS011;11297;42.686;23.374;2022-09-09T01:12:28;9.97;;;7.13;;
22256;SDS011;11297;42.686;23.374;2022-09-09T01:15:14;7.17;;;6.50;;
22256;SDS011;11297;42.686;23.374;2022-09-09T01:20:18;7.00;;;5.90;;
22256;SDS011;11297;42.686;23.374;2022-09-09T01:22:57;7.53;;;6.83;;
22256;SDS011;11297;42.686;23.374;2022-09-09T01:28:30;8.07;;;7.27;;
22256;SDS011;11297;42.686;23.374;2022-09-09T01:30:56;7.10;;;6.50;;
22256;SDS011;11297;42.686;23.374;2022-09-09T01:33:23;6.97;;;6.37;;
22256;SDS011;11297;42.686;23.374;2022-09-09T01:35:53;7.30;;;6.70;;
22256;SDS011;11297;42.686;23.374;2022-09-09T01:38:24;7.77;;;7.03;;
22256;SDS011;11297;42.686;23.374;2022-09-09T01:40:50;8.07;;;6.90;;
22256;SDS011;11297;42.686;23.374;2022-09-09T01:43:18;8.33;;;7.47;;
22256;SDS011;11297;42.686;23.374;2022-09-09T01:45:45;10.60;;;7.83;;
22256;SDS011;11297;42.686;23.374;2022-09-09T01:48:12;10.07;;;7.87;;
22256;SDS011;11297;42.686;23.374;2022-09-09T01:50:37;9.27;;;7.57;;
22256;SDS011;11297;42.686;23.374;2022-09-09T01:53:03;7.30;;;6.60;;
22256;SDS011;11297;42.686;23.374;2022-09-09T01:55:32;6.70;;;6.20;;
22256;SDS011;11297;42.686;23.374;2022-09-09T02:00:53;7.87;;;7.17;;
22256;SDS011;11297;42.686;23.374;2022-09-09T02:03:27;7.87;;;7.17;;
22256;SDS011;11297;42.686;23.374;2022-09-09T02:08:43;7.70;;;6.47;;
22256;SDS011;11297;42.686;23.374;2022-09-09T02:11:16;7.70;;;6.97;;
22256;SDS011;11297;42.686;23.374;2022-09-09T02:13:44;7.80;;;6.67;;
22256;SDS011;11297;42.686;23.374;2022-09-09T02:21:23;7.50;;;6.73;;
22256;SDS011;11297;42.686;23.374;2022-09-09T02:23:50;8.27;;;7.47;;
22256;SDS011;11297;42.686;23.374;2022-09-09T02:26:18;7.33;;;6.60;;
22256;SDS011;11297;42.686;23.374;2022-09-09T02:28:48;7.27;;;6.67;;
22256;SDS011;11297;42.686;23.374;2022-09-09T02:31:16;7.70;;;6.90;;
22256;SDS011;11297;42.686;23.374;2022-09-09T02:33:45;8.00;;;7.20;;
22256;SDS011;11297;42.686;23.374;2022-09-09T02:36:16;8.13;;;6.87;;
22256;SDS011;11297;42.686;23.374;2022-09-09T02:38:45;9.10;;;7.33;;
22256;SDS011;11297;42.686;23.374;2022-09-09T02:41:19;10.33;;;7.03;;
22256;SDS011;11297;42.686;23.374;2022-09-09T02:43:49;6.77;;;6.13;;
22256;SDS011;11297;42.686;23.374;2022-09-09T02:56:52;10.07;;;7.23;;
22256;SDS011;11297;42.686;23.374;2022-09-09T02:59:19;7.83;;;7.13;;
22256;SDS011;11297;42.686;23.374;2022-09-09T03:01:46;7.27;;;6.57;;
22256;SDS011;11297;42.686;23.374;2022-09-09T03:04:12;8.17;;;7.30;;
22256;SDS011;11297;42.686;23.374;2022-09-09T03:06:37;8.53;;;6.73;;
22256;SDS011;11297;42.686;23.374;2022-09-09T03:09:03;8.57;;;7.77;;
22256;SDS011;11297;42.686;23.374;2022-09-09T03:11:28;8.77;;;7.87;;
22256;SDS011;11297;42.686;23.374;2022-09-09T03:13:54;8.90;;;7.97;;
22256;SDS011;11297;42.686;23.374;2022-09-09T03:16:21;10.67;;;8.53;;
22256;SDS011;11297;42.686;23.374;2022-09-09T03:18:47;9.63;;;8.13;;
22256;SDS011;11297;42.686;23.374;2022-09-09T03:21:12;9.90;;;8.90;;
22256;SDS011;11297;42.686;23.374;2022-09-09T03:23:39;8.77;;;7.63;;
22256;SDS011;11297;42.686;23.374;2022-09-09T03:26:05;9.33;;;8.43;;
22256;SDS011;11297;42.686;23.374;2022-09-09T03:28:30;9.47;;;8.30;;
22256;SDS011;11297;42.686;23.374;2022-09-09T03:31:02;11.97;;;9.23;;
22256;SDS011;11297;42.686;23.374;2022-09-09T03:33:29;13.30;;;9.23;;
22256;SDS011;11297;42.686;23.374;2022-09-09T03:35:55;8.93;;;8.13;;
22256;SDS011;11297;42.686;23.374;2022-09-09T03:38:24;10.17;;;9.17;;
22256;SDS011;11297;42.686;23.374;2022-09-09T03:40:54;9.27;;;8.33;;
22256;SDS011;11297;42.686;23.374;2022-09-09T03:43:24;8.83;;;8.07;;
22256;SDS011;11297;42.686;23.374;2022-09-09T03:45:50;11.10;;;8.33;;
22256;SDS011;11297;42.686;23.374;2022-09-09T03:48:17;7.43;;;6.70;;
22256;SDS011;11297;42.686;23.374;2022-09-09T03:53:15;7.67;;;6.63;;
22256;SDS011;11297;42.686;23.374;2022-09-09T03:55:45;7.93;;;7.20;;
22256;SDS011;11297;42.686;23.374;2022-09-09T03:58:15;7.83;;;6.47;;
22256;SDS011;11297;42.686;23.374;2022-09-09T04:00:44;6.70;;;6.07;;
22256;SDS011;11297;42.686;23.374;2022-09-09T04:03:20;8.10;;;7.37;;
22256;SDS011;11297;42.686;23.374;2022-09-09T04:05:48;11.93;;;9.90;;
22256;SDS011;11297;42.686;23.374;2022-09-09T04:08:14;16.73;;;13.20;;
22256;SDS011;11297;42.686;23.374;2022-09-09T04:10:40;15.60;;;12.83;;
22256;SDS011;11297;42.686;23.374;2022-09-09T04:13:05;14.93;;;10.17;;
22256;SDS011;11297;42.686;23.374;2022-09-09T04:15:31;13.07;;;11.77;;
22256;SDS011;11297;42.686;23.374;2022-09-09T04:17:57;14.53;;;13.13;;
22256;SDS011;11297;42.686;23.374;2022-09-09T04:20:22;7.57;;;6.50;;
22256;SDS011;11297;42.686;23.374;2022-09-09T04:22:48;9.93;;;7.57;;
22256;SDS011;11297;42.686;23.374;2022-09-09T04:25:14;11.03;;;9.40;;
22256;SDS011;11297;42.686;23.374;2022-09-09T04:27:39;12.50;;;9.43;;
22256;SDS011;11297;42.686;23.374;2022-09-09T04:30:05;7.90;;;7.03;;
22256;SDS011;11297;42.686;23.374;2022-09-09T04:32:33;9.40;;;7.47;;
22256;SDS011;11297;42.686;23.374;2022-09-09T04:34:58;9.70;;;8.43;;
22256;SDS011;11297;42.686;23.374;2022-09-09T04:37:24;8.03;;;7.23;;
22256;SDS011;11297;42.686;23.374;2022-09-09T04:39:50;9.53;;;6.77;;
22256;SDS011;11297;42.686;23.374;2022-09-09T04:42:15;14.60;;;10.50;;
22256;SDS011;11297;42.686;23.374;2022-09-09T04:44:42;11.50;;;8.17;;
22256;SDS011;11297;42.686;23.374;2022-09-09T04:47:08;11.70;;;8.80;;
22256;SDS011;11297;42.686;23.374;2022-09-09T04:49:34;12.73;;;8.43;;
22256;SDS011;11297;42.686;23.374;2022-09-09T04:52:01;10.37;;;8.47;;
22256;SDS011;11297;42.686;23.374;2022-09-09T04:54:27;12.20;;;9.33;;
22256;SDS011;11297;42.686;23.374;2022-09-09T04:56:53;10.07;;;7.60;;
22256;SDS011;11297;42.686;23.374;2022-09-09T04:59:19;8.20;;;7.40;;
22256;SDS011;11297;42.686;23.374;2022-09-09T05:01:45;7.77;;;6.97;;
22256;SDS011;11297;42.686;23.374;2022-09-09T05:04:10;10.93;;;8.50;;
22256;SDS011;11297;42.686;23.374;2022-09-09T05:06:36;11.20;;;8.63;;
22256;SDS011;11297;42.686;23.374;2022-09-09T05:09:02;14.07;;;8.20;;
22256;SDS011;11297;42.686;23.374;2022-09-09T05:11:29;9.97;;;8.97;;
22256;SDS011;11297;42.686;23.374;2022-09-09T05:13:57;14.00;;;9.87;;
22256;SDS011;11297;42.686;23.374;2022-09-09T05:16:23;12.10;;;8.27;;
22256;SDS011;11297;42.686;23.374;2022-09-09T05:18:48;11.13;;;8.67;;
22256;SDS011;11297;42.686;23.374;2022-09-09T05:21:16;11.87;;;8.30;;
22256;SDS011;11297;42.686;23.374;2022-09-09T05:23:44;11.63;;;8.07;;
22256;SDS011;11297;42.686;23.374;2022-09-09T05:26:11;9.03;;;8.23;;
22256;SDS011;11297;42.686;23.374;2022-09-09T05:28:39;11.30;;;7.53;;
22256;SDS011;11297;42.686;23.374;2022-09-09T05:31:06;12.57;;;8.63;;
22256;SDS011;11297;42.686;23.374;2022-09-09T05:33:33;12.10;;;8.03;;
22256;SDS011;11297;42.686;23.374;2022-09-09T05:36:01;11.83;;;8.03;;
22256;SDS011;11297;42.686;23.374;2022-09-09T05:38:43;10.53;;;7.87;;
22256;SDS011;11297;42.686;23.374;2022-09-09T05:41:09;11.90;;;8.40;;
22256;SDS011;11297;42.686;23.374;2022-09-09T05:43:40;11.63;;;9.80;;
22256;SDS011;11297;42.686;23.374;2022-09-09T05:46:08;61.40;;;18.70;;
22256;SDS011;11297;42.686;23.374;2022-09-09T05:48:36;47.60;;;14.97;;
22256;SDS011;11297;42.686;23.374;2022-09-09T05:51:03;10.50;;;7.60;;
22256;SDS011;11297;42.686;23.374;2022-09-09T05:53:30;11.67;;;7.50;;
22256;SDS011;11297;42.686;23.374;2022-09-09T05:56:13;7.83;;;6.53;;
22256;SDS011;11297;42.686;23.374;2022-09-09T05:58:40;8.27;;;6.73;;
22256;SDS011;11297;42.686;23.374;2022-09-09T06:01:16;9.00;;;7.13;;
22256;SDS011;11297;42.686;23.374;2022-09-09T06:03:43;8.03;;;6.67;;
22256;SDS011;11297;42.686;23.374;2022-09-09T06:06:14;6.93;;;6.10;;
22256;SDS011;11297;42.686;23.374;2022-09-09T06:08:41;8.50;;;5.87;;
22256;SDS011;11297;42.686;23.374;2022-09-09T06:11:13;7.10;;;5.30;;
22256;SDS011;11297;42.686;23.374;2022-09-09T06:13:40;6.23;;;5.40;;
22256;SDS011;11297;42.686;23.374;2022-09-09T06:16:08;7.33;;;5.03;;
22256;SDS011;11297;42.686;23.374;2022-09-09T06:18:36;6.43;;;4.43;;
22256;SDS011;11297;42.686;23.374;2022-09-09T06:21:05;5.17;;;4.67;;
22256;SDS011;11297;42.686;23.374;2022-09-09T06:23:33;5.17;;;4.67;;
22256;SDS011;11297;42.686;23.374;2022-09-09T06:26:05;6.23;;;4.50;;
22256;SDS011;11297;42.686;23.374;2022-09-09T06:28:33;7.13;;;4.03;;
22256;SDS011;11297;42.686;23.374;2022-09-09T06:31:21;5.60;;;4.03;;
22256;SDS011;11297;42.686;23.374;2022-09-09T06:33:49;6.87;;;4.00;;
22256;SDS011;11297;42.686;23.374;2022-09-09T06:38:43;8.27;;;4.37;;
22256;SDS011;11297;42.686;23.374;2022-09-09T06:41:10;5.33;;;4.10;;
22256;SDS011;11297;42.686;23.374;2022-09-09T06:43:37;5.57;;;3.90;;
22256;SDS011;11297;42.686;23.374;2022-09-09T06:46:06;5.73;;;4.07;;
22256;SDS011;11297;42.686;23.374;2022-09-09T06:48:36;7.23;;;4.20;;
22256;SDS011;11297;42.686;23.374;2022-09-09T06:51:07;4.47;;;4.03;;
22256;SDS011;11297;42.686;23.374;2022-09-09T06:53:33;9.63;;;4.30;;
22256;SDS011;11297;42.686;23.374;2022-09-09T06:56:22;6.40;;;3.83;;
22256;SDS011;11297;42.686;23.374;2022-09-09T06:58:49;7.53;;;4.93;;
22256;SDS011;11297;42.686;23.374;2022-09-09T07:01:16;11.03;;;5.00;;
22256;SDS011;11297;42.686;23.374;2022-09-09T07:03:50;4.47;;;4.03;;
22256;SDS011;11297;42.686;23.374;2022-09-09T07:06:18;6.60;;;3.93;;
22256;SDS011;11297;42.686;23.374;2022-09-09T07:08:49;8.20;;;4.30;;
22256;SDS011;11297;42.686;23.374;2022-09-09T07:11:20;8.33;;;3.93;;
22256;SDS011;11297;42.686;23.374;2022-09-09T07:13:47;5.47;;;4.20;;
22256;SDS011;11297;42.686;23.374;2022-09-09T07:16:14;6.07;;;4.47;;
22256;SDS011;11297;42.686;23.374;2022-09-09T07:18:42;5.27;;;3.90;;
22256;SDS011;11297;42.686;23.374;2022-09-09T07:21:09;6.63;;;3.80;;
22256;SDS011;11297;42.686;23.374;2022-09-09T07:23:37;8.53;;;3.83;;
22256;SDS011;11297;42.686;23.374;2022-09-09T07:26:06;6.53;;;4.43;;
22256;SDS011;11297;42.686;23.374;2022-09-09T07:28:36;7.23;;;4.30;;
22256;SDS011;11297;42.686;23.374;2022-09-09T07:31:03;6.53;;;4.80;;
22256;SDS011;11297;42.686;23.374;2022-09-09T07:33:30;8.60;;;4.30;;
22256;SDS011;11297;42.686;23.374;2022-09-09T07:36:08;9.10;;;4.17;;
22256;SDS011;11297;42.686;23.374;2022-09-09T07:38:47;5.90;;;4.07;;
22256;SDS011;11297;42.686;23.374;2022-09-09T07:41:17;5.83;;;4.13;;
22256;SDS011;11297;42.686;23.374;2022-09-09T07:43:45;7.27;;;3.97;;
22256;SDS011;11297;42.686;23.374;2022-09-09T07:46:13;6.43;;;4.57;;
22256;SDS011;11297;42.686;23.374;2022-09-09T07:48:46;5.70;;;4.10;;
22256;SDS011;11297;42.686;23.374;2022-09-09T07:51:18;8.20;;;4.00;;
22256;SDS011;11297;42.686;23.374;2022-09-09T07:53:47;6.90;;;3.77;;
22256;SDS011;11297;42.686;23.374;2022-09-09T07:56:15;6.13;;;4.00;;
22256;SDS011;11297;42.686;23.374;2022-09-09T07:58:42;7.10;;;4.53;;
22256;SDS011;11297;42.686;23.374;2022-09-09T08:01:11;6.37;;;4.27;;
22256;SDS011;11297;42.686;23.374;2022-09-09T08:03:39;5.20;;;3.90;;
22256;SDS011;11297;42.686;23.374;2022-09-09T08:06:05;9.63;;;4.00;;
22256;SDS011;11297;42.686;23.374;2022-09-09T08:08:33;7.43;;;3.83;;
22256;SDS011;11297;42.686;23.374;2022-09-09T08:11:06;9.50;;;4.53;;
22256;SDS011;11297;42.686;23.374;2022-09-09T08:13:34;6.23;;;4.30;;
22256;SDS011;11297;42.686;23.374;2022-09-09T08:16:08;5.90;;;4.20;;
22256;SDS011;11297;42.686;23.374;2022-09-09T08:18:53;10.53;;;4.47;;
22256;SDS011;11297;42.686;23.374;2022-09-09T08:21:25;7.33;;;4.40;;
22256;SDS011;11297;42.686;23.374;2022-09-09T08:23:53;5.90;;;4.30;;
22256;SDS011;11297;42.686;23.374;2022-09-09T08:26:33;8.27;;;4.40;;
22256;SDS011;11297;42.686;23.374;2022-09-09T08:29:02;5.90;;;4.43;;
22256;SDS011;11297;42.686;23.374;2022-09-09T08:31:32;8.53;;;4.67;;
22256;SDS011;11297;42.686;23.374;2022-09-09T08:33:59;6.13;;;4.20;;
22256;SDS011;11297;42.686;23.374;2022-09-09T08:36:28;6.57;;;4.57;;
22256;SDS011;11297;42.686;23.374;2022-09-09T08:38:55;7.60;;;4.20;;
22256;SDS011;11297;42.686;23.374;2022-09-09T08:44:07;6.83;;;4.93;;
22256;SDS011;11297;42.686;23.374;2022-09-09T08:51:42;4.63;;;4.00;;
22256;SDS011;11297;42.686;23.374;2022-09-09T08:54:08;10.47;;;4.83;;
22256;SDS011;11297;42.686;23.374;2022-09-09T08:56:35;7.33;;;4.90;;
22256;SDS011;11297;42.686;23.374;2022-09-09T08:59:01;5.27;;;4.77;;
22256;SDS011;11297;42.686;23.374;2022-09-09T09:07:01;6.47;;;4.53;;
22256;SDS011;11297;42.686;23.374;2022-09-09T09:09:40;6.93;;;4.20;;
22256;SDS011;11297;42.686;23.374;2022-09-09T09:12:17;5.90;;;4.90;;
22256;SDS011;11297;42.686;23.374;2022-09-09T09:14:46;7.20;;;5.03;;
22256;SDS011;11297;42.686;23.374;2022-09-09T09:17:14;5.63;;;4.40;;
22256;SDS011;11297;42.686;23.374;2022-09-09T09:19:44;10.37;;;5.03;;
22256;SDS011;11297;42.686;23.374;2022-09-09T09:30:26;9.43;;;4.90;;
22256;SDS011;11297;42.686;23.374;2022-09-09T09:35:26;7.20;;;4.87;;
22256;SDS011;11297;42.686;23.374;2022-09-09T09:37:51;11.57;;;4.90;;
22256;SDS011;11297;42.686;23.374;2022-09-09T09:40:18;6.57;;;4.60;;
22256;SDS011;11297;42.686;23.374;2022-09-09T09:45:50;5.90;;;4.93;;
22256;SDS011;11297;42.686;23.374;2022-09-09T09:48:13;5.77;;;4.60;;
22256;SDS011;11297;42.686;23.374;2022-09-09T09:50:58;6.87;;;4.63;;
22256;SDS011;11297;42.686;23.374;2022-09-09T09:58:23;8.43;;;6.93;;
22256;SDS011;11297;42.686;23.374;2022-09-09T10:00:52;24.50;;;12.93;;
22256;SDS011;11297;42.686;23.374;2022-09-09T10:03:22;39.67;;;19.63;;
22256;SDS011;11297;42.686;23.374;2022-09-09T10:05:50;38.77;;;17.03;;
22256;SDS011;11297;42.686;23.374;2022-09-09T10:08:16;22.13;;;9.90;;
22256;SDS011;11297;42.686;23.374;2022-09-09T10:13:31;19.73;;;7.90;;
22256;SDS011;11297;42.686;23.374;2022-09-09T10:19:15;29.77;;;16.10;;
22256;SDS011;11297;42.686;23.374;2022-09-09T10:27:22;17.97;;;9.17;;
22256;SDS011;11297;42.686;23.374;2022-09-09T10:30:16;13.53;;;7.67;;
22256;SDS011;11297;42.686;23.374;2022-09-09T10:40:21;14.77;;;7.20;;
22256;SDS011;11297;42.686;23.374;2022-09-09T10:56:48;12.00;;;7.43;;
22256;SDS011;11297;42.686;23.374;2022-09-09T10:59:20;10.30;;;7.23;;
22256;SDS011;11297;42.686;23.374;2022-09-09T11:02:25;10.90;;;7.77;;
22256;SDS011;11297;42.686;23.374;2022-09-09T11:04:52;13.23;;;7.83;;
22256;SDS011;11297;42.686;23.374;2022-09-09T11:07:42;10.67;;;5.87;;
22256;SDS011;11297;42.686;23.374;2022-09-09T11:13:05;13.30;;;7.47;;
22256;SDS011;11297;42.686;23.374;2022-09-09T11:15:49;13.37;;;7.33;;
22256;SDS011;11297;42.686;23.374;2022-09-09T11:18:19;12.97;;;7.10;;
22256;SDS011;11297;42.686;23.374;2022-09-09T11:20:50;11.30;;;7.27;;
22256;SDS011;11297;42.686;23.374;2022-09-09T11:23:28;12.23;;;7.30;;
22256;SDS011;11297;42.686;23.374;2022-09-09T11:26:06;13.20;;;6.97;;
22256;SDS011;11297;42.686;23.374;2022-09-09T11:34:21;9.33;;;6.87;;
22256;SDS011;11297;42.686;23.374;2022-09-09T11:43:05;8.20;;;7.40;;
22256;SDS011;11297;42.686;23.374;2022-09-09T11:45:37;8.83;;;6.67;;
22256;SDS011;11297;42.686;23.374;2022-09-09T11:48:05;11.77;;;7.80;;
22256;SDS011;11297;42.686;23.374;2022-09-09T11:51:00;14.83;;;7.13;;
22256;SDS011;11297;42.686;23.374;2022-09-09T11:53:26;19.13;;;7.83;;
22256;SDS011;11297;42.686;23.374;2022-09-09T11:56:02;13.87;;;7.70;;
22256;SDS011;11297;42.686;23.374;2022-09-09T11:58:30;22.17;;;7.83;;
22256;SDS011;11297;42.686;23.374;2022-09-09T12:01:55;23.33;;;7.43;;
22256;SDS011;11297;42.686;23.374;2022-09-09T12:04:32;10.10;;;7.30;;
22256;SDS011;11297;42.686;23.374;2022-09-09T12:17:20;12.00;;;6.87;;
22256;SDS011;11297;42.686;23.374;2022-09-09T12:19:48;16.83;;;7.00;;
22256;SDS011;11297;42.686;23.374;2022-09-09T12:22:38;14.07;;;7.27;;
22256;SDS011;11297;42.686;23.374;2022-09-09T12:30:22;8.83;;;7.27;;
22256;SDS011;11297;42.686;23.374;2022-09-09T12:33:32;15.97;;;7.33;;
22256;SDS011;11297;42.686;23.374;2022-09-09T12:35:51;12.13;;;7.13;;
22256;SDS011;11297;42.686;23.374;2022-09-09T12:41:04;14.23;;;7.07;;
22256;SDS011;11297;42.686;23.374;2022-09-09T12:43:30;12.70;;;9.10;;
22256;SDS011;11297;42.686;23.374;2022-09-09T12:45:57;29.63;;;15.23;;
22256;SDS011;11297;42.686;23.374;2022-09-09T12:48:41;34.13;;;21.00;;
22256;SDS011;11297;42.686;23.374;2022-09-09T12:51:18;19.10;;;13.10;;
22256;SDS011;11297;42.686;23.374;2022-09-09T12:53:50;22.77;;;13.00;;
22256;SDS011;11297;42.686;23.374;2022-09-09T12:56:20;22.67;;;12.50;;
22256;SDS011;11297;42.686;23.374;2022-09-09T12:58:51;29.80;;;16.67;;
22256;SDS011;11297;42.686;23.374;2022-09-09T13:01:20;21.87;;;14.17;;
22256;SDS011;11297;42.686;23.374;2022-09-09T13:03:50;23.97;;;15.03;;
22256;SDS011;11297;42.686;23.374;2022-09-09T13:06:22;20.47;;;11.43;;
22256;SDS011;11297;42.686;23.374;2022-09-09T13:08:53;31.93;;;17.53;;
22256;SDS011;11297;42.686;23.374;2022-09-09T13:14:12;12.80;;;8.67;;
22256;SDS011;11297;42.686;23.374;2022-09-09T13:16:53;15.27;;;9.83;;
22256;SDS011;11297;42.686;23.374;2022-09-09T13:19:21;14.50;;;9.57;;
22256;SDS011;11297;42.686;23.374;2022-09-09T13:21:47;22.23;;;11.17;;
22256;SDS011;11297;42.686;23.374;2022-09-09T13:27:04;12.40;;;8.37;;
22256;SDS011;11297;42.686;23.374;2022-09-09T13:29:52;13.53;;;8.03;;
22256;SDS011;11297;42.686;23.374;2022-09-09T13:32:22;18.77;;;9.53;;
22256;SDS011;11297;42.686;23.374;2022-09-09T13:34:53;14.13;;;10.77;;
22256;SDS011;11297;42.686;23.374;2022-09-09T13:37:27;13.17;;;8.47;;
22256;SDS011;11297;42.686;23.374;2022-09-09T13:39:56;9.93;;;7.67;;
22256;SDS011;11297;42.686;23.374;2022-09-09T13:42:22;15.07;;;9.60;;
22256;SDS011;11297;42.686;23.374;2022-09-09T13:44:51;13.03;;;10.20;;
22256;SDS011;11297;42.686;23.374;2022-09-09T13:47:18;14.23;;;10.07;;
22256;SDS011;11297;42.686;23.374;2022-09-09T13:49:45;11.00;;;8.60;;
22256;SDS011;11297;42.686;23.374;2022-09-09T13:52:15;12.47;;;8.90;;
22256;SDS011;11297;42.686;23.374;2022-09-09T13:54:43;16.83;;;9.97;;
22256;SDS011;11297;42.686;23.374;2022-09-09T13:57:14;15.10;;;9.63;;
22256;SDS011;11297;42.686;23.374;2022-09-09T13:59:43;14.80;;;8.97;;
22256;SDS011;11297;42.686;23.374;2022-09-09T14:02:09;10.50;;;8.23;;
22256;SDS011;11297;42.686;23.374;2022-09-09T14:04:34;13.90;;;8.97;;
22256;SDS011;11297;42.686;23.374;2022-09-09T14:07:00;13.80;;;7.97;;
22256;SDS011;11297;42.686;23.374;2022-09-09T14:09:26;15.20;;;10.70;;
22256;SDS011;11297;42.686;23.374;2022-09-09T14:11:52;18.40;;;10.27;;
22256;SDS011;11297;42.686;23.374;2022-09-09T14:14:17;15.17;;;8.73;;
22256;SDS011;11297;42.686;23.374;2022-09-09T14:16:43;19.20;;;9.27;;
22256;SDS011;11297;42.686;23.374;2022-09-09T14:19:08;12.73;;;8.40;;
22256;SDS011;11297;42.686;23.374;2022-09-09T14:21:34;17.27;;;9.53;;
22256;SDS011;11297;42.686;23.374;2022-09-09T14:24:00;15.80;;;8.20;;
22256;SDS011;11297;42.686;23.374;2022-09-09T14:26:26;18.83;;;9.30;;
22256;SDS011;11297;42.686;23.374;2022-09-09T14:28:53;15.07;;;8.30;;
22256;SDS011;11297;42.686;23.374;2022-09-09T14:31:19;14.20;;;8.23;;
22256;SDS011;11297;42.686;23.374;2022-09-09T14:33:44;15.50;;;7.97;;
22256;SDS011;11297;42.686;23.374;2022-09-09T14:36:10;20.57;;;8.47;;
22256;SDS011;11297;42.686;23.374;2022-09-09T14:38:37;15.33;;;8.13;;
22256;SDS011;11297;42.686;23.374;2022-09-09T14:41:07;11.70;;;7.20;;
22256;SDS011;11297;42.686;23.374;2022-09-09T14:43:37;15.30;;;7.93;;
22256;SDS011;11297;42.686;23.374;2022-09-09T14:46:07;11.50;;;7.50;;
22256;SDS011;11297;42.686;23.374;2022-09-09T14:48:34;9.57;;;8.03;;
22256;SDS011;11297;42.686;23.374;2022-09-09T14:51:07;13.13;;;7.93;;
22256;SDS011;11297;42.686;23.374;2022-09-09T14:53:34;13.10;;;7.50;;
22256;SDS011;11297;42.686;23.374;2022-09-09T14:56:03;10.50;;;7.13;;
22256;SDS011;11297;42.686;23.374;2022-09-09T14:58:30;16.30;;;7.43;;
22256;SDS011;11297;42.686;23.374;2022-09-09T15:01:01;11.57;;;6.73;;
22256;SDS011;11297;42.686;23.374;2022-09-09T15:03:28;11.10;;;7.30;;
22256;SDS011;11297;42.686;23.374;2022-09-09T15:05:53;21.17;;;7.60;;
22256;SDS011;11297;42.686;23.374;2022-09-09T15:08:18;8.50;;;7.60;;
22256;SDS011;11297;42.686;23.374;2022-09-09T15:10:44;17.67;;;7.60;;
22256;SDS011;11297;42.686;23.374;2022-09-09T15:13:10;11.67;;;7.43;;
22256;SDS011;11297;42.686;23.374;2022-09-09T15:15:35;11.27;;;6.83;;
22256;SDS011;11297;42.686;23.374;2022-09-09T15:18:00;12.67;;;6.83;;
22256;SDS011;11297;42.686;23.374;2022-09-09T15:20:26;16.43;;;8.10;;
22256;SDS011;11297;42.686;23.374;2022-09-09T15:22:51;14.13;;;8.43;;
22256;SDS011;11297;42.686;23.374;2022-09-09T15:25:17;15.67;;;7.87;;
22256;SDS011;11297;42.686;23.374;2022-09-09T15:27:43;17.80;;;7.20;;
22256;SDS011;11297;42.686;23.374;2022-09-09T15:30:09;13.70;;;7.13;;
22256;SDS011;11297;42.686;23.374;2022-09-09T15:32:34;10.87;;;7.00;;
22256;SDS011;11297;42.686;23.374;2022-09-09T15:35:00;10.13;;;7.07;;
22256;SDS011;11297;42.686;23.374;2022-09-09T15:37:26;14.63;;;7.20;;
22256;SDS011;11297;42.686;23.374;2022-09-09T15:39:51;13.00;;;7.73;;
22256;SDS011;11297;42.686;23.374;2022-09-09T15:42:17;10.63;;;6.43;;
22256;SDS011;11297;42.686;23.374;2022-09-09T15:44:42;9.23;;;6.53;;
22256;SDS011;11297;42.686;23.374;2022-09-09T15:47:10;14.80;;;6.80;;
22256;SDS011;11297;42.686;23.374;2022-09-09T15:49:37;12.97;;;7.13;;
22256;SDS011;11297;42.686;23.374;2022-09-09T15:52:03;14.03;;;6.90;;
22256;SDS011;11297;42.686;23.374;2022-09-09T15:54:33;10.70;;;6.87;;
22256;SDS011;11297;42.686;23.374;2022-09-09T15:57:01;11.53;;;6.40;;
22256;SDS011;11297;42.686;23.374;2022-09-09T15:59:29;10.30;;;6.50;;
22256;SDS011;11297;42.686;23.374;2022-09-09T16:01:55;10.67;;;6.20;;
22256;SDS011;11297;42.686;23.374;2022-09-09T16:04:22;11.57;;;6.37;;
22256;SDS011;11297;42.686;23.374;2022-09-09T16:06:53;11.23;;;6.40;;
22256;SDS011;11297;42.686;23.374;2022-09-09T16:09:19;6.60;;;5.90;;
22256;SDS011;11297;42.686;23.374;2022-09-09T16:11:45;10.80;;;6.67;;
22256;SDS011;11297;42.686;23.374;2022-09-09T16:14:12;11.07;;;6.70;;
22256;SDS011;11297;42.686;23.374;2022-09-09T16:16:38;12.03;;;6.73;;
22256;SDS011;11297;42.686;23.374;2022-09-09T16:19:05;11.00;;;5.97;;
22256;SDS011;11297;42.686;23.374;2022-09-09T16:21:33;16.13;;;7.50;;
22256;SDS011;11297;42.686;23.374;2022-09-09T16:24:03;12.43;;;6.90;;
22256;SDS011;11297;42.686;23.374;2022-09-09T16:26:31;14.97;;;7.00;;
22256;SDS011;11297;42.686;23.374;2022-09-09T16:28:59;15.43;;;6.87;;
22256;SDS011;11297;42.686;23.374;2022-09-09T16:31:26;11.97;;;6.63;;
22256;SDS011;11297;42.686;23.374;2022-09-09T16:33:52;12.03;;;6.67;;
22256;SDS011;11297;42.686;23.374;2022-09-09T16:36:19;12.77;;;6.13;;
22256;SDS011;11297;42.686;23.374;2022-09-09T16:38:47;15.17;;;7.10;;
22256;SDS011;11297;42.686;23.374;2022-09-09T16:41:13;11.57;;;6.80;;
22256;SDS011;11297;42.686;23.374;2022-09-09T16:43:39;13.13;;;6.83;;
22256;SDS011;11297;42.686;23.374;2022-09-09T16:46:18;14.37;;;7.33;;
22256;SDS011;11297;42.686;23.374;2022-09-09T16:48:45;10.60;;;7.10;;
22256;SDS011;11297;42.686;23.374;2022-09-09T16:51:16;10.60;;;7.27;;
22256;SDS011;11297;42.686;23.374;2022-09-09T16:53:43;13.83;;;7.00;;
22256;SDS011;11297;42.686;23.374;2022-09-09T16:56:10;12.37;;;6.77;;
22256;SDS011;11297;42.686;23.374;2022-09-09T16:58:41;9.73;;;6.33;;
22256;SDS011;11297;42.686;23.374;2022-09-09T17:01:10;11.60;;;6.60;;
22256;SDS011;11297;42.686;23.374;2022-09-09T17:03:38;14.97;;;7.67;;
22256;SDS011;11297;42.686;23.374;2022-09-09T17:06:08;10.63;;;6.03;;
22256;SDS011;11297;42.686;23.374;2022-09-09T17:08:38;13.77;;;7.10;;
22256;SDS011;11297;42.686;23.374;2022-09-09T17:11:08;12.03;;;7.47;;
22256;SDS011;11297;42.686;23.374;2022-09-09T17:13:38;12.40;;;6.70;;
22256;SDS011;11297;42.686;23.374;2022-09-09T17:16:04;12.50;;;6.80;;
22256;SDS011;11297;42.686;23.374;2022-09-09T17:18:30;14.57;;;6.60;;
22256;SDS011;11297;42.686;23.374;2022-09-09T17:20:56;11.87;;;6.53;;